sensor_id;sensor_type;location;lat;lon;timestamp;pressure;altitude;pressure_sealevel;temperature;humidity
59493;BME280;45497;43.996;22.876;2023-12-28T00:01:25;102323.50;;;10.76;45.52
59493;BME280;45497;43.996;22.876;2023-12-28T00:03:51;102311.38;;;10.74;45.74
59493;BME280;45497;43.996;22.876;2023-12-28T00:06:19;102317.38;;;10.76;45.30
59493;BME280;45497;43.996;22.876;2023-12-28T00:08:45;102320.41;;;10.71;45.32
59493;BME280;45497;43.996;22.876;2023-12-28T00:11:11;102312.00;;;10.66;45.64
59493;BME280;45497;43.996;22.876;2023-12-28T00:13:36;102307.94;;;10.62;45.74
59493;BME280;45497;43.996;22.876;2023-12-28T00:16:02;102305.59;;;10.68;45.41
59493;BME280;45497;43.996;22.876;2023-12-28T00:18:28;102305.03;;;10.65;44.99
59493;BME280;45497;43.996;22.876;2023-12-28T00:20:53;102314.81;;;10.64;45.57
59493;BME280;45497;43.996;22.876;2023-12-28T00:23:19;102310.91;;;10.47;45.49
59493;BME280;45497;43.996;22.876;2023-12-28T00:25:47;102315.59;;;10.34;45.78
59493;BME280;45497;43.996;22.876;2023-12-28T00:28:13;102318.31;;;10.11;46.58
59493;BME280;45497;43.996;22.876;2023-12-28T00:30:39;102322.94;;;9.98;47.27
59493;BME280;45497;43.996;22.876;2023-12-28T00:33:05;102324.72;;;10.09;46.81
59493;BME280;45497;43.996;22.876;2023-12-28T00:35:30;102331.84;;;10.29;46.55
59493;BME280;45497;43.996;22.876;2023-12-28T00:37:56;102331.25;;;10.37;45.83
59493;BME280;45497;43.996;22.876;2023-12-28T00:40:25;102336.97;;;10.42;45.65
59493;BME280;45497;43.996;22.876;2023-12-28T00:42:50;102341.84;;;10.37;46.13
59493;BME280;45497;43.996;22.876;2023-12-28T00:45:17;102341.97;;;10.24;45.97
59493;BME280;45497;43.996;22.876;2023-12-28T00:47:43;102343.59;;;10.16;46.20
59493;BME280;45497;43.996;22.876;2023-12-28T00:50:09;102342.97;;;10.23;46.44
59493;BME280;45497;43.996;22.876;2023-12-28T00:52:40;102342.28;;;10.42;45.81
59493;BME280;45497;43.996;22.876;2023-12-28T00:55:06;102351.03;;;10.54;45.79
59493;BME280;45497;43.996;22.876;2023-12-28T00:57:33;102365.44;;;10.61;45.23
59493;BME280;45497;43.996;22.876;2023-12-28T00:59:58;102356.56;;;10.51;45.63
59493;BME280;45497;43.996;22.876;2023-12-28T01:02:24;102352.94;;;10.31;45.84
59493;BME280;45497;43.996;22.876;2023-12-28T01:04:50;102356.47;;;10.20;45.99
59493;BME280;45497;43.996;22.876;2023-12-28T01:07:15;102365.13;;;10.22;46.14
59493;BME280;45497;43.996;22.876;2023-12-28T01:09:44;102353.97;;;10.07;45.92
59493;BME280;45497;43.996;22.876;2023-12-28T01:12:09;102344.78;;;9.90;46.21
59493;BME280;45497;43.996;22.876;2023-12-28T01:14:35;102341.81;;;9.72;47.30
59493;BME280;45497;43.996;22.876;2023-12-28T01:17:01;102350.63;;;9.62;47.75
59493;BME280;45497;43.996;22.876;2023-12-28T01:19:26;102349.69;;;9.51;48.13
59493;BME280;45497;43.996;22.876;2023-12-28T01:21:52;102351.09;;;9.55;48.15
59493;BME280;45497;43.996;22.876;2023-12-28T01:24:18;102355.31;;;9.69;47.90
59493;BME280;45497;43.996;22.876;2023-12-28T01:26:46;102354.97;;;9.51;47.61
59493;BME280;45497;43.996;22.876;2023-12-28T01:29:12;102345.72;;;9.23;48.48
59493;BME280;45497;43.996;22.876;2023-12-28T01:31:37;102351.50;;;9.17;48.02
59493;BME280;45497;43.996;22.876;2023-12-28T01:34:04;102347.63;;;9.32;47.98
59493;BME280;45497;43.996;22.876;2023-12-28T01:36:34;102360.38;;;9.50;47.62
59493;BME280;45497;43.996;22.876;2023-12-28T01:39:00;102365.44;;;9.53;47.00
59493;BME280;45497;43.996;22.876;2023-12-28T01:41:26;102353.78;;;8.99;48.64
59493;BME280;45497;43.996;22.876;2023-12-28T01:43:51;102352.63;;;8.56;49.63
59493;BME280;45497;43.996;22.876;2023-12-28T01:46:18;102347.28;;;8.80;49.07
59493;BME280;45497;43.996;22.876;2023-12-28T01:48:47;102347.06;;;9.06;48.21
59493;BME280;45497;43.996;22.876;2023-12-28T01:51:14;102338.28;;;9.06;47.88
59493;BME280;45497;43.996;22.876;2023-12-28T01:53:40;102350.53;;;8.95;47.68
59493;BME280;45497;43.996;22.876;2023-12-28T01:56:07;102353.91;;;8.86;47.88
59493;BME280;45497;43.996;22.876;2023-12-28T01:58:35;102357.25;;;8.77;48.20
59493;BME280;45497;43.996;22.876;2023-12-28T02:01:01;102357.47;;;8.74;48.14
59493;BME280;45497;43.996;22.876;2023-12-28T02:03:27;102368.78;;;8.76;48.43
59493;BME280;45497;43.996;22.876;2023-12-28T02:05:53;102365.91;;;8.79;47.71
59493;BME280;45497;43.996;22.876;2023-12-28T02:08:19;102362.28;;;8.80;47.59
59493;BME280;45497;43.996;22.876;2023-12-28T02:10:45;102356.50;;;8.75;47.50
59493;BME280;45497;43.996;22.876;2023-12-28T02:13:10;102367.66;;;8.67;47.68
59493;BME280;45497;43.996;22.876;2023-12-28T02:15:39;102365.25;;;8.64;48.04
59493;BME280;45497;43.996;22.876;2023-12-28T02:18:18;102354.56;;;8.66;47.35
59493;BME280;45497;43.996;22.876;2023-12-28T02:20:46;102357.31;;;8.64;47.61
59493;BME280;45497;43.996;22.876;2023-12-28T02:23:12;102343.97;;;8.54;47.70
59493;BME280;45497;43.996;22.876;2023-12-28T02:25:38;102352.91;;;8.40;47.93
59493;BME280;45497;43.996;22.876;2023-12-28T02:28:04;102344.00;;;8.30;47.99
59493;BME280;45497;43.996;22.876;2023-12-28T02:30:30;102345.16;;;8.26;48.12
59493;BME280;45497;43.996;22.876;2023-12-28T02:33:15;102343.00;;;8.20;48.07
59493;BME280;45497;43.996;22.876;2023-12-28T02:38:33;102341.38;;;8.06;48.50
59493;BME280;45497;43.996;22.876;2023-12-28T02:41:03;102346.56;;;8.19;48.17
59493;BME280;45497;43.996;22.876;2023-12-28T02:43:29;102350.69;;;8.23;48.30
59493;BME280;45497;43.996;22.876;2023-12-28T02:45:54;102343.69;;;8.11;48.59
59493;BME280;45497;43.996;22.876;2023-12-28T02:48:20;102357.72;;;8.11;48.44
59493;BME280;45497;43.996;22.876;2023-12-28T02:50:46;102355.09;;;8.11;48.34
59493;BME280;45497;43.996;22.876;2023-12-28T02:53:12;102349.91;;;8.10;48.44
59493;BME280;45497;43.996;22.876;2023-12-28T02:55:41;102343.75;;;7.98;48.62
59493;BME280;45497;43.996;22.876;2023-12-28T02:58:06;102345.09;;;8.03;48.79
59493;BME280;45497;43.996;22.876;2023-12-28T03:00:32;102350.53;;;8.13;48.49
59493;BME280;45497;43.996;22.876;2023-12-28T03:02:58;102355.69;;;8.15;48.10
59493;BME280;45497;43.996;22.876;2023-12-28T03:05:23;102350.41;;;8.15;48.35
59493;BME280;45497;43.996;22.876;2023-12-28T03:07:49;102342.81;;;8.10;48.11
59493;BME280;45497;43.996;22.876;2023-12-28T03:10:15;102344.50;;;8.11;47.98
59493;BME280;45497;43.996;22.876;2023-12-28T03:12:42;102347.47;;;8.07;48.16
59493;BME280;45497;43.996;22.876;2023-12-28T03:15:08;102348.28;;;7.96;48.24
59493;BME280;45497;43.996;22.876;2023-12-28T03:17:33;102349.31;;;7.82;48.90
59493;BME280;45497;43.996;22.876;2023-12-28T03:20:00;102335.84;;;7.61;49.76
59493;BME280;45497;43.996;22.876;2023-12-28T03:22:26;102337.97;;;7.56;49.68
59493;BME280;45497;43.996;22.876;2023-12-28T03:24:52;102336.09;;;7.45;50.02
59493;BME280;45497;43.996;22.876;2023-12-28T03:27:18;102332.94;;;7.40;50.19
59493;BME280;45497;43.996;22.876;2023-12-28T03:29:45;102333.47;;;7.45;49.96
59493;BME280;45497;43.996;22.876;2023-12-28T03:32:11;102339.91;;;7.41;50.32
59493;BME280;45497;43.996;22.876;2023-12-28T03:34:37;102346.81;;;7.18;51.05
59493;BME280;45497;43.996;22.876;2023-12-28T03:37:03;102343.03;;;6.96;51.48
59493;BME280;45497;43.996;22.876;2023-12-28T03:39:28;102343.56;;;6.76;52.13
59493;BME280;45497;43.996;22.876;2023-12-28T03:41:54;102345.88;;;6.80;51.82
59493;BME280;45497;43.996;22.876;2023-12-28T03:44:20;102355.06;;;6.75;51.49
59493;BME280;45497;43.996;22.876;2023-12-28T03:46:49;102341.34;;;6.69;51.39
59493;BME280;45497;43.996;22.876;2023-12-28T03:49:20;102358.13;;;6.68;51.49
59493;BME280;45497;43.996;22.876;2023-12-28T03:51:46;102351.69;;;6.73;50.83
59493;BME280;45497;43.996;22.876;2023-12-28T03:54:12;102357.25;;;6.68;50.87
59493;BME280;45497;43.996;22.876;2023-12-28T03:56:38;102351.34;;;6.64;50.96
59493;BME280;45497;43.996;22.876;2023-12-28T03:59:05;102353.78;;;6.67;50.89
59493;BME280;45497;43.996;22.876;2023-12-28T04:01:32;102348.13;;;6.74;50.69
59493;BME280;45497;43.996;22.876;2023-12-28T04:03:58;102353.16;;;6.77;50.77
59493;BME280;45497;43.996;22.876;2023-12-28T04:06:43;102355.59;;;6.67;51.24
59493;BME280;45497;43.996;22.876;2023-12-28T04:09:11;102358.59;;;6.48;51.69
59493;BME280;45497;43.996;22.876;2023-12-28T04:11:37;102370.88;;;6.22;52.26
59493;BME280;45497;43.996;22.876;2023-12-28T04:14:03;102369.91;;;5.96;53.87
59493;BME280;45497;43.996;22.876;2023-12-28T04:16:30;102369.84;;;5.83;54.16
59493;BME280;45497;43.996;22.876;2023-12-28T04:18:56;102372.88;;;5.77;54.45
59493;BME280;45497;43.996;22.876;2023-12-28T04:21:21;102374.94;;;5.71;54.56
59493;BME280;45497;43.996;22.876;2023-12-28T04:23:47;102367.41;;;5.65;54.29
59493;BME280;45497;43.996;22.876;2023-12-28T04:26:12;102367.16;;;5.70;54.15
59493;BME280;45497;43.996;22.876;2023-12-28T04:28:39;102373.34;;;5.69;54.23
59493;BME280;45497;43.996;22.876;2023-12-28T04:31:05;102380.53;;;5.80;54.18
59493;BME280;45497;43.996;22.876;2023-12-28T04:33:32;102372.19;;;5.87;53.59
59493;BME280;45497;43.996;22.876;2023-12-28T04:36:00;102383.72;;;5.99;53.15
59493;BME280;45497;43.996;22.876;2023-12-28T04:38:28;102392.00;;;6.07;52.88
59493;BME280;45497;43.996;22.876;2023-12-28T04:40:54;102382.38;;;6.06;52.79
59493;BME280;45497;43.996;22.876;2023-12-28T04:43:20;102384.19;;;6.06;52.56
59493;BME280;45497;43.996;22.876;2023-12-28T04:45:46;102391.69;;;6.12;52.45
59493;BME280;45497;43.996;22.876;2023-12-28T04:48:11;102380.03;;;6.16;52.49
59493;BME280;45497;43.996;22.876;2023-12-28T04:50:37;102390.56;;;6.16;52.46
59493;BME280;45497;43.996;22.876;2023-12-28T04:53:03;102386.13;;;6.17;52.34
59493;BME280;45497;43.996;22.876;2023-12-28T04:55:28;102397.16;;;6.09;52.76
59493;BME280;45497;43.996;22.876;2023-12-28T04:58:00;102403.66;;;6.03;52.95
59493;BME280;45497;43.996;22.876;2023-12-28T05:00:26;102397.19;;;5.94;52.83
59493;BME280;45497;43.996;22.876;2023-12-28T05:02:52;102405.53;;;6.01;52.86
59493;BME280;45497;43.996;22.876;2023-12-28T05:05:18;102404.75;;;6.13;52.48
59493;BME280;45497;43.996;22.876;2023-12-28T05:07:43;102415.84;;;6.19;51.82
59493;BME280;45497;43.996;22.876;2023-12-28T05:10:10;102415.09;;;6.17;51.95
59493;BME280;45497;43.996;22.876;2023-12-28T05:12:36;102409.41;;;6.23;51.90
59493;BME280;45497;43.996;22.876;2023-12-28T05:15:03;102410.59;;;6.31;51.86
59493;BME280;45497;43.996;22.876;2023-12-28T05:17:31;102411.25;;;6.35;51.56
59493;BME280;45497;43.996;22.876;2023-12-28T05:19:57;102418.03;;;6.39;51.18
59493;BME280;45497;43.996;22.876;2023-12-28T05:22:22;102430.97;;;6.42;51.37
59493;BME280;45497;43.996;22.876;2023-12-28T05:24:48;102419.06;;;6.37;51.16
59493;BME280;45497;43.996;22.876;2023-12-28T05:27:14;102420.03;;;6.36;51.34
59493;BME280;45497;43.996;22.876;2023-12-28T05:29:39;102420.22;;;6.32;51.29
59493;BME280;45497;43.996;22.876;2023-12-28T05:32:05;102420.22;;;6.32;51.41
59493;BME280;45497;43.996;22.876;2023-12-28T05:34:31;102418.13;;;6.38;51.41
59493;BME280;45497;43.996;22.876;2023-12-28T05:36:57;102426.81;;;6.53;51.29
59493;BME280;45497;43.996;22.876;2023-12-28T05:39:22;102426.16;;;6.49;51.15
59493;BME280;45497;43.996;22.876;2023-12-28T05:41:48;102433.41;;;6.45;51.54
59493;BME280;45497;43.996;22.876;2023-12-28T05:44:16;102433.59;;;6.42;51.35
59493;BME280;45497;43.996;22.876;2023-12-28T05:46:42;102427.69;;;6.39;51.09
59493;BME280;45497;43.996;22.876;2023-12-28T05:49:08;102422.75;;;6.34;51.32
59493;BME280;45497;43.996;22.876;2023-12-28T05:51:41;102421.50;;;6.40;51.15
59493;BME280;45497;43.996;22.876;2023-12-28T05:54:07;102429.41;;;6.40;50.97
59493;BME280;45497;43.996;22.876;2023-12-28T05:56:33;102433.94;;;6.38;51.01
59493;BME280;45497;43.996;22.876;2023-12-28T05:58:59;102418.88;;;6.40;50.77
59493;BME280;45497;43.996;22.876;2023-12-28T06:01:24;102432.97;;;6.39;51.02
59493;BME280;45497;43.996;22.876;2023-12-28T06:03:50;102429.78;;;6.34;51.05
59493;BME280;45497;43.996;22.876;2023-12-28T06:06:18;102425.66;;;6.29;50.93
59493;BME280;45497;43.996;22.876;2023-12-28T06:08:44;102427.66;;;6.26;51.16
59493;BME280;45497;43.996;22.876;2023-12-28T06:11:11;102415.94;;;6.17;51.20
59493;BME280;45497;43.996;22.876;2023-12-28T06:13:36;102417.63;;;6.18;51.46
59493;BME280;45497;43.996;22.876;2023-12-28T06:16:02;102428.63;;;6.25;51.05
59493;BME280;45497;43.996;22.876;2023-12-28T06:18:28;102433.34;;;6.20;51.37
59493;BME280;45497;43.996;22.876;2023-12-28T06:20:55;102429.75;;;6.21;51.05
59493;BME280;45497;43.996;22.876;2023-12-28T06:23:21;102429.44;;;6.25;51.08
59493;BME280;45497;43.996;22.876;2023-12-28T06:25:46;102414.81;;;6.21;51.03
59493;BME280;45497;43.996;22.876;2023-12-28T06:28:12;102417.97;;;6.26;50.85
59493;BME280;45497;43.996;22.876;2023-12-28T06:30:38;102430.00;;;6.30;51.28
59493;BME280;45497;43.996;22.876;2023-12-28T06:33:05;102430.94;;;6.29;51.43
59493;BME280;45497;43.996;22.876;2023-12-28T06:35:31;102440.53;;;6.30;51.21
59493;BME280;45497;43.996;22.876;2023-12-28T06:37:59;102444.28;;;6.26;51.23
59493;BME280;45497;43.996;22.876;2023-12-28T06:40:24;102438.03;;;6.15;51.72
59493;BME280;45497;43.996;22.876;2023-12-28T06:42:50;102443.91;;;6.05;51.91
59493;BME280;45497;43.996;22.876;2023-12-28T06:45:16;102445.13;;;5.85;52.31
59493;BME280;45497;43.996;22.876;2023-12-28T06:47:41;102436.69;;;5.51;53.12
59493;BME280;45497;43.996;22.876;2023-12-28T06:50:07;102438.75;;;5.46;53.34
59493;BME280;45497;43.996;22.876;2023-12-28T06:52:33;102451.34;;;5.41;53.46
59493;BME280;45497;43.996;22.876;2023-12-28T06:54:59;102447.66;;;5.44;53.46
59493;BME280;45497;43.996;22.876;2023-12-28T06:57:24;102451.44;;;5.54;53.19
59493;BME280;45497;43.996;22.876;2023-12-28T06:59:50;102450.13;;;5.47;52.95
59493;BME280;45497;43.996;22.876;2023-12-28T07:02:22;102445.03;;;5.58;52.85
59493;BME280;45497;43.996;22.876;2023-12-28T07:04:51;102444.38;;;5.69;52.62
59493;BME280;45497;43.996;22.876;2023-12-28T07:07:23;102444.69;;;5.64;53.11
59493;BME280;45497;43.996;22.876;2023-12-28T07:09:51;102450.31;;;5.58;52.84
59493;BME280;45497;43.996;22.876;2023-12-28T07:12:19;102443.28;;;5.59;53.15
59493;BME280;45497;43.996;22.876;2023-12-28T07:14:45;102439.78;;;5.58;53.38
59493;BME280;45497;43.996;22.876;2023-12-28T07:17:11;102437.44;;;5.68;53.11
59493;BME280;45497;43.996;22.876;2023-12-28T07:19:40;102436.69;;;5.66;53.64
59493;BME280;45497;43.996;22.876;2023-12-28T07:22:17;102441.56;;;5.43;54.12
59493;BME280;45497;43.996;22.876;2023-12-28T07:24:42;102440.63;;;5.30;54.80
59493;BME280;45497;43.996;22.876;2023-12-28T07:27:08;102436.31;;;5.43;54.88
59493;BME280;45497;43.996;22.876;2023-12-28T07:29:34;102427.94;;;5.65;54.36
59493;BME280;45497;43.996;22.876;2023-12-28T07:31:59;102424.63;;;5.76;53.81
59493;BME280;45497;43.996;22.876;2023-12-28T07:34:25;102428.09;;;5.91;53.60
59493;BME280;45497;43.996;22.876;2023-12-28T07:36:51;102424.19;;;5.98;53.48
59493;BME280;45497;43.996;22.876;2023-12-28T07:39:18;102435.97;;;6.20;52.98
59493;BME280;45497;43.996;22.876;2023-12-28T07:41:47;102437.03;;;6.30;53.05
59493;BME280;45497;43.996;22.876;2023-12-28T07:44:15;102438.09;;;6.27;53.14
59493;BME280;45497;43.996;22.876;2023-12-28T07:46:42;102437.41;;;6.38;52.88
59493;BME280;45497;43.996;22.876;2023-12-28T07:49:18;102449.19;;;6.32;53.27
59493;BME280;45497;43.996;22.876;2023-12-28T07:51:45;102438.19;;;6.26;53.47
59493;BME280;45497;43.996;22.876;2023-12-28T07:54:11;102436.09;;;6.31;53.67
59493;BME280;45497;43.996;22.876;2023-12-28T07:56:37;102447.88;;;6.53;53.40
59493;BME280;45497;43.996;22.876;2023-12-28T07:59:02;102450.84;;;6.61;52.91
59493;BME280;45497;43.996;22.876;2023-12-28T08:01:29;102462.88;;;6.65;53.25
59493;BME280;45497;43.996;22.876;2023-12-28T08:03:58;102451.59;;;6.63;53.09
59493;BME280;45497;43.996;22.876;2023-12-28T08:06:25;102442.34;;;6.70;52.97
59493;BME280;45497;43.996;22.876;2023-12-28T08:08:50;102441.22;;;6.87;52.86
59493;BME280;45497;43.996;22.876;2023-12-28T08:11:16;102444.59;;;7.02;52.41
59493;BME280;45497;43.996;22.876;2023-12-28T08:13:45;102445.22;;;7.18;52.12
59493;BME280;45497;43.996;22.876;2023-12-28T08:16:10;102444.41;;;7.31;51.97
59493;BME280;45497;43.996;22.876;2023-12-28T08:18:36;102449.38;;;7.35;51.77
59493;BME280;45497;43.996;22.876;2023-12-28T08:21:04;102439.44;;;7.39;51.69
59493;BME280;45497;43.996;22.876;2023-12-28T08:23:30;102435.22;;;7.49;51.81
59493;BME280;45497;43.996;22.876;2023-12-28T08:25:56;102430.88;;;7.61;51.29
59493;BME280;45497;43.996;22.876;2023-12-28T08:28:22;102427.38;;;7.73;51.17
59493;BME280;45497;43.996;22.876;2023-12-28T08:30:49;102437.19;;;7.71;50.94
59493;BME280;45497;43.996;22.876;2023-12-28T08:33:15;102428.81;;;7.77;50.80
59493;BME280;45497;43.996;22.876;2023-12-28T08:35:44;102434.63;;;7.82;50.68
59493;BME280;45497;43.996;22.876;2023-12-28T08:38:10;102440.63;;;7.84;50.31
59493;BME280;45497;43.996;22.876;2023-12-28T08:40:36;102439.59;;;7.87;49.97
59493;BME280;45497;43.996;22.876;2023-12-28T08:43:02;102433.91;;;8.04;49.75
59493;BME280;45497;43.996;22.876;2023-12-28T08:45:28;102427.75;;;8.17;49.70
59493;BME280;45497;43.996;22.876;2023-12-28T08:47:53;102419.31;;;8.12;49.64
59493;BME280;45497;43.996;22.876;2023-12-28T08:50:19;102422.19;;;8.09;49.63
59493;BME280;45497;43.996;22.876;2023-12-28T08:52:45;102423.88;;;8.10;49.71
59493;BME280;45497;43.996;22.876;2023-12-28T08:55:10;102413.50;;;8.07;49.37
59493;BME280;45497;43.996;22.876;2023-12-28T08:57:36;102407.13;;;7.98;49.58
59493;BME280;45497;43.996;22.876;2023-12-28T09:00:04;102419.81;;;7.93;49.84
59493;BME280;45497;43.996;22.876;2023-12-28T09:02:30;102411.13;;;8.03;49.72
59493;BME280;45497;43.996;22.876;2023-12-28T09:04:58;102407.63;;;8.27;49.38
59493;BME280;45497;43.996;22.876;2023-12-28T09:07:24;102406.41;;;8.44;49.18
59493;BME280;45497;43.996;22.876;2023-12-28T09:09:50;102416.56;;;8.61;49.00
59493;BME280;45497;43.996;22.876;2023-12-28T09:12:16;102412.00;;;8.64;48.97
59493;BME280;45497;43.996;22.876;2023-12-28T09:14:42;102409.94;;;8.56;49.01
59493;BME280;45497;43.996;22.876;2023-12-28T09:17:07;102408.09;;;8.45;49.38
59493;BME280;45497;43.996;22.876;2023-12-28T09:19:33;102405.38;;;8.58;49.29
59493;BME280;45497;43.996;22.876;2023-12-28T09:22:29;102412.78;;;8.77;49.24
59493;BME280;45497;43.996;22.876;2023-12-28T09:24:58;102404.06;;;8.64;49.05
59493;BME280;45497;43.996;22.876;2023-12-28T09:27:24;102395.56;;;8.71;49.36
59493;BME280;45497;43.996;22.876;2023-12-28T09:29:50;102378.63;;;8.74;48.78
59493;BME280;45497;43.996;22.876;2023-12-28T09:32:24;102388.03;;;8.89;48.82
59493;BME280;45497;43.996;22.876;2023-12-28T09:35:16;102386.84;;;8.93;48.31
59493;BME280;45497;43.996;22.876;2023-12-28T09:37:53;102377.59;;;8.99;48.82
59493;BME280;45497;43.996;22.876;2023-12-28T09:47:19;102346.94;;;9.08;47.96
59493;BME280;45497;43.996;22.876;2023-12-28T09:50:35;102330.69;;;9.12;47.78
59493;BME280;45497;43.996;22.876;2023-12-28T09:53:50;102319.84;;;9.27;47.30
59493;BME280;45497;43.996;22.876;2023-12-28T09:56:15;102322.38;;;9.40;47.34
59493;BME280;45497;43.996;22.876;2023-12-28T09:58:42;102313.56;;;9.50;46.97
59493;BME280;45497;43.996;22.876;2023-12-28T10:01:10;102318.94;;;9.71;47.09
59493;BME280;45497;43.996;22.876;2023-12-28T10:03:36;102314.75;;;9.57;46.72
59493;BME280;45497;43.996;22.876;2023-12-28T10:06:03;102315.63;;;9.58;46.60
59493;BME280;45497;43.996;22.876;2023-12-28T10:08:29;102299.72;;;9.58;46.59
59493;BME280;45497;43.996;22.876;2023-12-28T10:10:56;102292.16;;;9.53;46.33
59493;BME280;45497;43.996;22.876;2023-12-28T10:13:25;102290.22;;;9.55;45.49
59493;BME280;45497;43.996;22.876;2023-12-28T10:15:51;102303.31;;;9.57;45.79
59493;BME280;45497;43.996;22.876;2023-12-28T10:18:23;102294.28;;;9.60;45.46
59493;BME280;45497;43.996;22.876;2023-12-28T10:21:33;102289.88;;;9.81;47.29
59493;BME280;45497;43.996;22.876;2023-12-28T10:43:28;102222.25;;;9.77;46.20
59493;BME280;45497;43.996;22.876;2023-12-28T10:50:23;102212.53;;;10.20;45.26
59493;BME280;45497;43.996;22.876;2023-12-28T11:03:27;102219.03;;;10.37;45.17
59493;BME280;45497;43.996;22.876;2023-12-28T11:09:57;102196.88;;;10.38;45.39
59493;BME280;45497;43.996;22.876;2023-12-28T11:12:55;102194.34;;;10.67;45.24
59493;BME280;45497;43.996;22.876;2023-12-28T11:15:54;102185.81;;;10.63;44.93
59493;BME280;45497;43.996;22.876;2023-12-28T12:08:13;102106.47;;;11.20;43.77
59493;BME280;45497;43.996;22.876;2023-12-28T12:10:46;102103.25;;;11.26;44.05
59493;BME280;45497;43.996;22.876;2023-12-28T12:13:16;102103.28;;;11.17;44.07
59493;BME280;45497;43.996;22.876;2023-12-28T12:15:44;102089.84;;;11.28;43.61
59493;BME280;45497;43.996;22.876;2023-12-28T12:18:10;102088.88;;;11.29;43.76
59493;BME280;45497;43.996;22.876;2023-12-28T12:28:06;102056.72;;;11.42;43.01
59493;BME280;45497;43.996;22.876;2023-12-28T13:46:02;102014.75;;;12.30;41.38
59493;BME280;45497;43.996;22.876;2023-12-28T13:48:33;102021.03;;;12.29;41.57
59493;BME280;45497;43.996;22.876;2023-12-28T13:51:01;102013.97;;;12.38;41.48
59493;BME280;45497;43.996;22.876;2023-12-28T13:53:30;102003.97;;;12.32;41.54
59493;BME280;45497;43.996;22.876;2023-12-28T13:55:57;102015.19;;;12.43;41.32
59493;BME280;45497;43.996;22.876;2023-12-28T13:58:22;102007.38;;;12.42;41.36
59493;BME280;45497;43.996;22.876;2023-12-28T14:01:01;102020.16;;;12.56;41.27
59493;BME280;45497;43.996;22.876;2023-12-28T14:03:30;102014.84;;;12.56;41.06
59493;BME280;45497;43.996;22.876;2023-12-28T14:06:01;102002.59;;;12.46;41.26
59493;BME280;45497;43.996;22.876;2023-12-28T14:08:31;102008.28;;;12.51;41.27
59493;BME280;45497;43.996;22.876;2023-12-28T14:10:57;102015.97;;;12.54;41.19
59493;BME280;45497;43.996;22.876;2023-12-28T14:13:24;102004.19;;;12.56;40.96
59493;BME280;45497;43.996;22.876;2023-12-28T14:15:51;102005.34;;;12.54;41.15
59493;BME280;45497;43.996;22.876;2023-12-28T14:18:20;102000.16;;;12.52;41.09
59493;BME280;45497;43.996;22.876;2023-12-28T14:20:48;101998.19;;;12.54;41.01
59493;BME280;45497;43.996;22.876;2023-12-28T14:23:14;101990.31;;;12.62;41.04
59493;BME280;45497;43.996;22.876;2023-12-28T14:25:40;101998.88;;;12.56;41.17
59493;BME280;45497;43.996;22.876;2023-12-28T14:28:06;102005.06;;;12.57;41.12
59493;BME280;45497;43.996;22.876;2023-12-28T14:30:35;101999.63;;;12.67;41.09
59493;BME280;45497;43.996;22.876;2023-12-28T14:33:04;101993.66;;;12.65;41.27
59493;BME280;45497;43.996;22.876;2023-12-28T14:35:32;101993.78;;;12.63;41.14
59493;BME280;45497;43.996;22.876;2023-12-28T14:38:02;101998.28;;;12.62;41.04
59493;BME280;45497;43.996;22.876;2023-12-28T14:40:31;102007.91;;;12.63;41.10
59493;BME280;45497;43.996;22.876;2023-12-28T14:43:00;101990.75;;;12.58;40.97
59493;BME280;45497;43.996;22.876;2023-12-28T14:48:59;101995.69;;;12.53;40.87
59493;BME280;45497;43.996;22.876;2023-12-28T14:51:27;101989.44;;;12.44;41.14
59493;BME280;45497;43.996;22.876;2023-12-28T14:53:56;101978.66;;;12.46;41.11
59493;BME280;45497;43.996;22.876;2023-12-28T14:56:24;101971.97;;;12.41;40.79
59493;BME280;45497;43.996;22.876;2023-12-28T14:59:07;101970.47;;;12.39;41.16
59493;BME280;45497;43.996;22.876;2023-12-28T15:01:49;101966.88;;;12.30;41.13
59493;BME280;45497;43.996;22.876;2023-12-28T15:04:15;101970.38;;;12.31;40.78
59493;BME280;45497;43.996;22.876;2023-12-28T15:06:41;101964.50;;;12.27;40.87
59493;BME280;45497;43.996;22.876;2023-12-28T15:09:16;101976.63;;;12.12;40.94
59493;BME280;45497;43.996;22.876;2023-12-28T15:11:45;101978.75;;;12.08;41.23
59493;BME280;45497;43.996;22.876;2023-12-28T15:17:32;101965.09;;;12.03;41.30
59493;BME280;45497;43.996;22.876;2023-12-28T15:20:33;101965.81;;;11.95;41.27
59493;BME280;45497;43.996;22.876;2023-12-28T15:23:08;101966.69;;;11.96;41.44
59493;BME280;45497;43.996;22.876;2023-12-28T15:29:23;101953.38;;;11.86;41.36
59493;BME280;45497;43.996;22.876;2023-12-28T15:32:27;101958.84;;;11.84;41.35
59493;BME280;45497;43.996;22.876;2023-12-28T15:35:18;101959.72;;;11.75;41.53
59493;BME280;45497;43.996;22.876;2023-12-28T15:37:46;101946.78;;;11.72;41.56
59493;BME280;45497;43.996;22.876;2023-12-28T15:43:43;101947.25;;;11.58;41.74
59493;BME280;45497;43.996;22.876;2023-12-28T15:46:46;101959.13;;;11.54;41.73
59493;BME280;45497;43.996;22.876;2023-12-28T15:49:22;101955.78;;;11.52;41.88
59493;BME280;45497;43.996;22.876;2023-12-28T17:36:50;101974.31;;;7.83;48.32
59493;BME280;45497;43.996;22.876;2023-12-28T17:39:21;101975.25;;;7.82;48.54
59493;BME280;45497;43.996;22.876;2023-12-28T17:41:54;101978.72;;;7.83;48.30
59493;BME280;45497;43.996;22.876;2023-12-28T17:47:04;101954.78;;;8.30;47.07
59493;BME280;45497;43.996;22.876;2023-12-28T17:49:32;101943.44;;;8.39;46.98
59493;BME280;45497;43.996;22.876;2023-12-28T17:52:01;101940.13;;;8.48;46.47
59493;BME280;45497;43.996;22.876;2023-12-28T17:54:28;101919.81;;;8.49;46.86
59493;BME280;45497;43.996;22.876;2023-12-28T17:56:54;101934.06;;;8.57;46.36